Time;durP1;ratioP1;P1;durP2;ratioP2;P2;SDS_P1;SDS_P2;PMS_P1;PMS_P2;Temp;Humidity;BMP_temperature;BMP_pressure;BME280_temperature;BME280_humidity;BME280_pressure;Samples;Min_cycle;Max_cycle;Signal;HPM_P1;HPM_P2
2021/01/23 00:00:24;;;;;;;5.63;4.57;;;0.90;79.60;;;;;;4860194;29;20049;-74
2021/01/23 00:02:50;;;;;;;7.38;4.60;;;1.00;79.70;;;;;;4860463;29;20423;-74
2021/01/23 00:05:17;;;;;;;7.55;5.32;;;0.90;79.60;;;;;;4859535;29;20144;-72
2021/01/23 00:07:45;;;;;;;7.88;5.63;;;0.90;79.60;;;;;;4862119;29;20298;-74
2021/01/23 00:10:13;;;;;;;11.60;5.80;;;0.90;79.60;;;;;;4857972;29;20068;-72
2021/01/23 00:12:40;;;;;;;8.35;6.32;;;0.90;79.60;;;;;;4860028;29;20049;-73
2021/01/23 00:15:09;;;;;;;8.98;6.40;;;0.90;79.70;;;;;;4859573;29;20104;-73
2021/01/23 00:17:37;;;;;;;11.07;7.68;;;0.90;79.70;;;;;;4858020;29;20094;-72
2021/01/23 00:20:05;;;;;;;9.82;6.65;;;0.90;79.70;;;;;;4857795;29;20207;-72
2021/01/23 00:22:33;;;;;;;8.45;6.25;;;0.90;79.70;;;;;;4859138;29;20416;-72
2021/01/23 00:25:00;;;;;;;12.20;6.97;;;1.00;79.90;;;;;;4857452;29;20413;-73
2021/01/23 00:27:27;;;;;;;10.35;6.90;;;1.00;79.90;;;;;;4861673;29;20045;-72
2021/01/23 00:29:54;;;;;;;10.25;6.65;;;1.00;79.90;;;;;;4860272;29;20561;-72
2021/01/23 00:32:21;;;;;;;11.10;7.03;;;0.90;79.80;;;;;;4859559;29;20049;-72
2021/01/23 00:34:48;;;;;;;12.00;6.85;;;0.90;79.80;;;;;;4854492;29;20060;-72
2021/01/23 00:37:15;;;;;;;12.13;7.93;;;1.00;79.90;;;;;;4861725;29;20504;-72
2021/01/23 00:39:42;;;;;;;12.70;7.88;;;1.00;80.00;;;;;;4857388;29;20054;-72
2021/01/23 00:42:09;;;;;;;13.88;7.78;;;1.00;79.90;;;;;;4862156;29;20049;-74
2021/01/23 00:44:36;;;;;;;14.25;8.70;;;1.00;79.90;;;;;;4860460;29;20049;-73
2021/01/23 00:47:04;;;;;;;15.88;8.40;;;1.00;80.00;;;;;;4860680;29;20050;-72
2021/01/23 00:49:31;;;;;;;11.93;8.38;;;1.00;80.00;;;;;;4858801;29;20061;-72
2021/01/23 00:51:58;;;;;;;13.75;8.45;;;1.00;80.00;;;;;;4865359;29;20053;-72
2021/01/23 00:54:24;;;;;;;13.93;8.38;;;0.90;79.90;;;;;;4862785;29;20065;-73
2021/01/23 00:56:51;;;;;;;13.57;8.32;;;0.90;79.90;;;;;;4865751;29;20053;-74
2021/01/23 00:59:18;;;;;;;12.88;8.35;;;1.00;80.10;;;;;;4857968;29;20065;-74
2021/01/23 01:01:45;;;;;;;14.07;7.60;;;1.00;80.10;;;;;;4858038;29;20157;-74
2021/01/23 01:04:12;;;;;;;10.80;6.45;;;1.10;80.20;;;;;;4860061;29;20057;-68
2021/01/23 01:06:39;;;;;;;7.95;4.45;;;1.20;80.30;;;;;;4859517;29;20049;-68
2021/01/23 01:09:06;;;;;;;5.05;3.15;;;1.40;75.80;;;;;;4859862;29;20049;-68
2021/01/23 01:11:33;;;;;;;5.30;3.45;;;1.40;75.90;;;;;;4855338;29;20053;-68
2021/01/23 01:13:59;;;;;;;7.10;4.03;;;1.40;73.40;;;;;;4860497;29;20052;-68
2021/01/23 01:16:26;;;;;;;10.25;5.43;;;1.40;75.00;;;;;;4858747;29;20057;-68
2021/01/23 01:18:53;;;;;;;7.57;5.28;;;1.40;77.90;;;;;;4876100;29;20060;-74
2021/01/23 01:21:21;;;;;;;9.18;5.45;;;1.20;76.70;;;;;;4860846;29;20071;-74
2021/01/23 01:23:48;;;;;;;8.90;5.65;;;1.20;78.00;;;;;;4860569;29;20064;-73
2021/01/23 01:26:14;;;;;;;11.10;6.35;;;1.20;78.20;;;;;;4868623;29;20266;-74
2021/01/23 01:28:41;;;;;;;10.73;6.80;;;1.10;78.70;;;;;;4864185;29;20049;-73
2021/01/23 01:31:09;;;;;;;14.93;8.10;;;1.10;78.70;;;;;;4861362;29;20054;-73
2021/01/23 01:33:36;;;;;;;14.43;8.48;;;1.10;79.00;;;;;;4858055;29;20421;-73
2021/01/23 01:36:04;;;;;;;14.75;8.98;;;1.10;79.30;;;;;;4856687;29;20049;-73
2021/01/23 01:38:32;;;;;;;17.67;10.05;;;1.10;79.50;;;;;;4860525;29;20072;-74
2021/01/23 01:40:59;;;;;;;19.20;11.45;;;1.10;79.70;;;;;;4859307;29;20435;-73
2021/01/23 01:43:25;;;;;;;21.05;12.00;;;1.10;79.80;;;;;;4859103;29;20064;-74
2021/01/23 01:45:52;;;;;;;19.30;11.85;;;1.10;79.80;;;;;;4864143;29;20084;-73
2021/01/23 01:48:19;;;;;;;21.70;13.32;;;1.00;79.90;;;;;;4863091;29;20049;-73
2021/01/23 01:50:46;;;;;;;27.58;15.55;;;1.10;80.00;;;;;;4859952;29;20416;-73
2021/01/23 01:53:13;;;;;;;26.90;15.18;;;1.00;80.00;;;;;;4862488;29;20067;-74
2021/01/23 01:55:41;;;;;;;27.83;15.75;;;1.10;80.20;;;;;;4860035;29;20063;-73
2021/01/23 01:58:08;;;;;;;24.73;15.25;;;1.10;80.20;;;;;;4858808;29;20086;-74
2021/01/23 02:00:35;;;;;;;27.05;15.77;;;1.10;80.30;;;;;;4855761;29;20140;-73
2021/01/23 02:03:31;;;;;;;27.23;15.77;;;1.10;80.30;;;;;;4859941;29;20055;-73
2021/01/23 02:06:08;;;;;;;24.85;14.65;;;1.20;80.50;;;;;;4860615;29;20046;-72
2021/01/23 02:08:46;;;;;;;27.15;15.93;;;1.20;80.50;;;;;;4859394;29;20069;-73
2021/01/23 02:11:32;;;;;;;30.38;17.00;;;1.20;80.50;;;;;;4866931;29;20178;-73
2021/01/23 02:14:10;;;;;;;34.50;19.13;;;1.20;80.60;;;;;;4862277;29;20053;-73
2021/01/23 02:16:43;;;;;;;38.80;18.52;;;1.20;80.50;;;;;;4866354;29;20049;-71
2021/01/23 02:19:27;;;;;;;28.30;16.58;;;1.10;80.50;;;;;;4866402;29;20045;-72
2021/01/23 02:22:20;;;;;;;31.17;15.63;;;1.20;80.80;;;;;;4861105;29;20054;-72
2021/01/23 02:24:51;;;;;;;25.75;14.40;;;1.10;80.50;;;;;;4862010;29;20049;-75
2021/01/23 02:27:41;;;;;;;24.45;13.20;;;1.10;80.60;;;;;;4868822;29;20055;-76
2021/01/23 02:30:17;;;;;;;23.08;12.90;;;1.10;80.70;;;;;;4868446;29;20049;-76
2021/01/23 02:32:48;;;;;;;19.50;12.02;;;1.20;80.70;;;;;;4863413;29;20399;-74
2021/01/23 02:35:17;;;;;;;19.98;12.02;;;1.10;80.60;;;;;;4858701;29;20055;-74
2021/01/23 02:37:45;;;;;;;17.25;10.80;;;1.10;80.60;;;;;;4860052;29;20045;-74
2021/01/23 02:40:13;;;;;;;16.58;10.65;;;1.10;80.60;;;;;;4854052;29;20068;-74
2021/01/23 02:42:40;;;;;;;15.02;10.07;;;1.10;80.60;;;;;;4861004;29;20535;-74
2021/01/23 02:45:09;;;;;;;15.20;8.80;;;1.10;80.60;;;;;;4859049;29;20056;-74
2021/01/23 02:47:37;;;;;;;13.23;7.70;;;1.00;80.50;;;;;;4860960;29;20447;-74
2021/01/23 02:50:07;;;;;;;13.35;8.30;;;1.00;80.50;;;;;;4857494;29;20579;-74
2021/01/23 02:52:42;;;;;;;10.55;7.10;;;1.00;80.60;;;;;;4858705;29;20053;-74
2021/01/23 02:55:15;;;;;;;10.10;7.20;;;1.00;80.60;;;;;;4860246;29;20144;-74
2021/01/23 02:57:44;;;;;;;11.13;7.05;;;1.00;80.60;;;;;;4858148;29;20048;-74
2021/01/23 03:00:12;;;;;;;10.25;6.65;;;1.10;80.70;;;;;;4856140;29;21313;-75
2021/01/23 03:02:43;;;;;;;10.25;6.93;;;1.10;80.60;;;;;;4858715;29;20501;-75
2021/01/23 03:05:12;;;;;;;10.45;6.70;;;1.10;80.50;;;;;;4856350;29;20061;-74
2021/01/23 03:07:39;;;;;;;10.73;6.80;;;1.00;80.50;;;;;;4858015;29;20046;-74
2021/01/23 03:10:07;;;;;;;10.35;7.38;;;1.10;80.70;;;;;;4860502;29;20064;-74
2021/01/23 03:12:33;;;;;;;9.80;6.55;;;1.10;80.50;;;;;;4854652;29;20049;-74
2021/01/23 03:15:00;;;;;;;12.70;7.78;;;1.10;80.50;;;;;;4857859;29;20493;-75
2021/01/23 03:17:27;;;;;;;11.13;7.35;;;1.10;80.70;;;;;;4860541;29;20049;-74
2021/01/23 03:19:54;;;;;;;10.55;7.47;;;1.10;80.60;;;;;;4857841;29;20049;-75
2021/01/23 03:22:22;;;;;;;10.98;7.60;;;1.10;80.60;;;;;;4857471;29;20140;-75
2021/01/23 03:24:49;;;;;;;12.43;7.55;;;1.20;80.80;;;;;;4857256;29;20049;-76
2021/01/23 03:27:16;;;;;;;10.40;7.40;;;1.20;80.60;;;;;;4858329;29;20053;-75
2021/01/23 03:29:42;;;;;;;11.02;8.23;;;1.20;80.70;;;;;;4861081;29;20094;-75
2021/01/23 03:32:10;;;;;;;11.27;7.78;;;1.30;80.80;;;;;;4857273;29;20065;-75
2021/01/23 03:34:37;;;;;;;12.95;8.32;;;1.20;80.60;;;;;;4856575;29;20053;-75
2021/01/23 03:37:03;;;;;;;13.70;9.25;;;1.20;80.30;;;;;;4858409;29;20057;-75
2021/01/23 03:39:31;;;;;;;13.90;8.65;;;1.20;80.40;;;;;;4856340;29;20049;-75
2021/01/23 03:41:58;;;;;;;17.02;10.25;;;1.10;80.40;;;;;;4863588;29;20493;-75
2021/01/23 03:44:25;;;;;;;14.15;9.90;;;1.10;80.50;;;;;;4856185;29;20052;-75
2021/01/23 03:46:51;;;;;;;16.02;10.27;;;1.10;80.40;;;;;;4859260;29;20427;-75
2021/01/23 03:49:18;;;;;;;14.85;9.60;;;1.20;80.60;;;;;;4857058;29;20389;-76
2021/01/23 03:51:45;;;;;;;15.80;10.07;;;1.20;80.60;;;;;;4863815;29;20049;-75
2021/01/23 03:54:12;;;;;;;15.80;9.70;;;1.20;80.80;;;;;;4861055;29;20053;-75
2021/01/23 03:56:41;;;;;;;14.95;9.65;;;1.30;80.70;;;;;;4856985;29;20083;-75
2021/01/23 03:59:08;;;;;;;18.52;10.70;;;1.20;80.20;;;;;;4859817;29;20520;-75
2021/01/23 04:01:34;;;;;;;15.50;10.30;;;1.30;80.50;;;;;;4854930;29;20054;-75
2021/01/23 04:04:02;;;;;;;17.52;10.95;;;1.30;80.50;;;;;;4856884;29;20060;-74
2021/01/23 04:06:29;;;;;;;19.17;11.80;;;1.30;80.20;;;;;;4860216;29;20057;-74
2021/01/23 04:08:56;;;;;;;21.85;11.77;;;1.30;80.40;;;;;;4863468;29;20061;-74
2021/01/23 04:11:23;;;;;;;18.77;11.25;;;1.40;80.40;;;;;;4857519;29;20072;-74
2021/01/23 04:13:50;;;;;;;19.75;11.75;;;1.30;80.40;;;;;;4858970;29;20065;-74
2021/01/23 04:16:17;;;;;;;20.88;12.05;;;1.40;80.20;;;;;;4860510;29;20049;-74
2021/01/23 04:18:45;;;;;;;21.92;12.38;;;1.40;80.50;;;;;;4868052;29;20054;-73
2021/01/23 04:21:11;;;;;;;17.73;12.02;;;1.40;80.20;;;;;;4860941;29;20057;-73
2021/01/23 04:23:39;;;;;;;23.20;12.38;;;1.50;80.50;;;;;;4859456;29;20050;-74
2021/01/23 04:26:06;;;;;;;18.75;11.52;;;1.50;80.20;;;;;;4861425;29;20065;-73
2021/01/23 04:28:33;;;;;;;18.17;11.23;;;1.50;80.10;;;;;;4857109;29;20065;-74
2021/01/23 04:31:01;;;;;;;19.02;11.13;;;1.50;80.00;;;;;;4859841;29;20067;-73
2021/01/23 04:33:27;;;;;;;18.75;10.93;;;1.50;79.70;;;;;;4860191;29;20135;-74
2021/01/23 04:35:54;;;;;;;21.60;11.65;;;1.50;79.80;;;;;;4860730;29;20053;-73
2021/01/23 04:38:22;;;;;;;17.30;10.57;;;1.50;80.00;;;;;;4860331;29;20409;-73
2021/01/23 04:40:49;;;;;;;19.15;10.70;;;1.60;79.80;;;;;;4859747;29;20081;-72
2021/01/23 04:43:15;;;;;;;20.13;10.93;;;1.60;79.10;;;;;;4857025;29;20070;-72
2021/01/23 04:45:42;;;;;;;18.33;10.75;;;1.60;79.10;;;;;;4868078;29;20057;-72
2021/01/23 04:48:10;;;;;;;15.82;10.00;;;1.60;79.10;;;;;;4860858;29;20080;-72
2021/01/23 04:50:37;;;;;;;19.40;10.32;;;1.60;79.10;;;;;;4863780;29;20064;-73
2021/01/23 04:53:04;;;;;;;18.17;9.77;;;1.60;79.10;;;;;;4855418;29;20076;-73
2021/01/23 04:55:31;;;;;;;15.57;9.57;;;1.60;78.00;;;;;;4862957;29;20053;-73
2021/01/23 04:57:58;;;;;;;15.35;8.57;;;1.60;77.90;;;;;;4858699;29;20054;-73
2021/01/23 05:00:25;;;;;;;15.48;8.68;;;1.60;77.20;;;;;;4858913;29;20160;-73
2021/01/23 05:02:59;;;;;;;12.90;7.95;;;1.60;76.30;;;;;;4855391;29;20064;-73
2021/01/23 05:05:27;;;;;;;13.77;8.40;;;1.60;75.50;;;;;;4860033;29;20460;-73
2021/01/23 05:08:04;;;;;;;16.85;7.50;;;1.60;74.10;;;;;;4858979;29;20064;-72
2021/01/23 05:10:31;;;;;;;14.88;9.13;;;1.60;74.70;;;;;;4856002;29;20412;-72
2021/01/23 05:12:59;;;;;;;15.48;9.52;;;1.60;74.50;;;;;;4862576;29;20064;-74
2021/01/23 05:15:27;;;;;;;13.73;7.85;;;1.60;74.30;;;;;;4861030;29;20055;-72
2021/01/23 05:17:56;;;;;;;16.10;8.15;;;1.70;74.60;;;;;;4859696;29;20061;-72
2021/01/23 05:20:34;;;;;;;11.55;7.63;;;1.70;74.30;;;;;;4855863;29;20474;-71
2021/01/23 05:23:02;;;;;;;12.98;8.05;;;1.70;74.20;;;;;;4860291;29;20063;-74
2021/01/23 05:25:30;;;;;;;14.45;8.73;;;1.60;74.10;;;;;;4857354;29;20050;-72
2021/01/23 05:27:57;;;;;;;14.93;8.20;;;1.60;75.20;;;;;;4859803;29;20046;-72
2021/01/23 05:30:25;;;;;;;15.77;8.00;;;1.60;75.20;;;;;;4856893;29;20061;-72
2021/01/23 05:33:05;;;;;;;15.27;8.57;;;1.60;74.70;;;;;;4856824;29;20497;-73
2021/01/23 05:35:34;;;;;;;11.68;7.10;;;1.60;75.20;;;;;;4855335;29;20072;-71
2021/01/23 05:38:17;;;;;;;11.73;7.63;;;1.70;72.60;;;;;;4857809;29;20056;-72
2021/01/23 05:40:44;;;;;;;14.10;8.15;;;1.70;72.00;;;;;;4855579;29;20153;-72
2021/01/23 05:43:11;;;;;;;14.30;8.10;;;1.60;72.70;;;;;;4859256;29;20049;-72
2021/01/23 05:45:47;;;;;;;14.52;8.13;;;1.60;72.70;;;;;;4856012;29;20056;-72
2021/01/23 05:48:15;;;;;;;14.85;8.60;;;1.60;75.40;;;;;;4858752;29;20064;-72
2021/01/23 05:50:43;;;;;;;14.35;6.97;;;1.50;75.80;;;;;;4855722;29;20523;-73
2021/01/23 05:53:10;;;;;;;11.63;6.88;;;1.50;75.80;;;;;;4856824;29;20053;-72
2021/01/23 05:55:37;;;;;;;11.95;6.38;;;1.60;76.80;;;;;;4860326;29;20505;-72
2021/01/23 05:58:04;;;;;;;11.77;6.22;;;1.60;77.30;;;;;;4858244;29;20056;-73
2021/01/23 06:00:31;;;;;;;13.13;6.13;;;1.60;77.00;;;;;;4860988;29;20071;-73
2021/01/23 06:03:00;;;;;;;8.52;5.55;;;1.60;76.30;;;;;;4857967;29;20056;-72
2021/01/23 06:05:27;;;;;;;10.68;6.45;;;1.60;76.00;;;;;;4859558;29;20045;-73
2021/01/23 06:07:54;;;;;;;10.13;6.15;;;1.50;76.30;;;;;;4860974;29;20061;-73
2021/01/23 06:10:36;;;;;;;12.38;5.68;;;1.50;76.80;;;;;;4854497;29;20049;-74
2021/01/23 06:13:04;;;;;;;12.63;6.38;;;1.50;77.10;;;;;;4859264;29;20054;-72
2021/01/23 06:15:39;;;;;;;12.90;6.25;;;1.50;77.40;;;;;;4858374;29;20425;-73
2021/01/23 06:18:08;;;;;;;13.50;6.10;;;1.50;77.90;;;;;;4856743;29;20060;-72
2021/01/23 06:20:52;;;;;;;11.00;6.00;;;1.50;77.30;;;;;;4855360;29;20046;-73
2021/01/23 06:23:21;;;;;;;11.25;6.57;;;1.50;77.60;;;;;;4855689;29;20061;-72
2021/01/23 06:25:59;;;;;;;10.75;6.15;;;1.60;77.60;;;;;;4857495;29;20061;-72
2021/01/23 06:28:54;;;;;;;10.07;6.50;;;1.50;76.70;;;;;;4858266;29;20561;-73
2021/01/23 06:31:32;;;;;;;14.90;8.55;;;1.50;77.10;;;;;;4856971;29;20053;-72
2021/01/23 06:34:00;;;;;;;14.38;7.47;;;1.50;77.30;;;;;;4855983;29;20405;-74
2021/01/23 06:36:29;;;;;;;13.10;8.00;;;1.50;77.60;;;;;;4860082;29;20060;-73
2021/01/23 06:39:09;;;;;;;11.27;6.50;;;1.50;78.00;;;;;;4856722;29;20060;-72
2021/01/23 06:41:36;;;;;;;9.95;6.50;;;1.50;77.10;;;;;;4855644;29;20067;-72
2021/01/23 06:44:17;;;;;;;9.18;6.40;;;1.50;75.90;;;;;;4859525;29;20401;-72
2021/01/23 06:46:56;;;;;;;10.13;6.43;;;1.50;76.40;;;;;;4856798;29;20113;-72
2021/01/23 06:49:24;;;;;;;10.00;5.82;;;1.50;77.00;;;;;;4860230;29;20129;-72
2021/01/23 06:52:03;;;;;;;10.68;5.97;;;1.50;77.20;;;;;;4854575;29;20068;-72
2021/01/23 06:54:31;;;;;;;9.13;5.93;;;1.50;76.80;;;;;;4853686;29;21394;-71
2021/01/23 06:56:58;;;;;;;18.15;7.35;;;1.40;75.10;;;;;;4857816;29;20128;-72
2021/01/23 06:59:26;;;;;;;15.20;6.55;;;1.40;77.10;;;;;;4859894;29;20068;-72
2021/01/23 07:01:57;;;;;;;12.55;5.90;;;1.30;76.90;;;;;;4856113;29;20058;-72
2021/01/23 07:04:25;;;;;;;12.07;6.53;;;1.40;78.10;;;;;;4855799;29;20088;-72
2021/01/23 07:06:53;;;;;;;10.82;7.63;;;1.40;77.90;;;;;;4855296;29;20061;-72
2021/01/23 07:09:21;;;;;;;14.27;7.63;;;1.40;78.90;;;;;;4855871;29;20061;-72
2021/01/23 07:11:48;;;;;;;11.05;6.75;;;1.30;78.10;;;;;;4855606;29;20064;-72
2021/01/23 07:14:15;;;;;;;10.90;7.13;;;1.30;78.80;;;;;;4856604;29;20509;-74
2021/01/23 07:16:52;;;;;;;11.75;7.85;;;1.30;78.80;;;;;;4857737;29;20143;-71
2021/01/23 07:19:26;;;;;;;12.25;7.47;;;1.30;78.80;;;;;;4857463;29;20125;-72
2021/01/23 07:21:54;;;;;;;12.23;8.25;;;1.30;78.80;;;;;;4855708;29;20813;-73
2021/01/23 07:24:21;;;;;;;12.45;8.32;;;1.20;78.70;;;;;;4853634;29;20417;-72
2021/01/23 07:26:49;;;;;;;13.00;8.25;;;1.30;79.20;;;;;;4858148;29;20147;-72
2021/01/23 07:29:16;;;;;;;13.68;8.00;;;1.30;79.20;;;;;;4858266;29;20079;-71
2021/01/23 07:31:43;;;;;;;11.77;7.97;;;1.30;79.40;;;;;;4854405;29;20060;-72
2021/01/23 07:34:12;;;;;;;16.80;9.90;;;1.30;79.60;;;;;;4855820;29;20079;-72
2021/01/23 07:36:42;;;;;;;14.70;9.40;;;1.30;79.80;;;;;;4858610;29;20076;-73
2021/01/23 07:39:11;;;;;;;12.70;8.68;;;1.30;80.00;;;;;;4856526;29;20056;-73
2021/01/23 07:41:40;;;;;;;13.02;8.23;;;1.40;80.10;;;;;;4856522;29;20050;-72
2021/01/23 07:44:11;;;;;;;15.63;8.80;;;1.30;80.10;;;;;;4862006;29;20049;-73
2021/01/23 07:46:40;;;;;;;16.42;8.90;;;1.30;80.00;;;;;;4863681;29;20053;-72
2021/01/23 07:49:08;;;;;;;15.02;9.55;;;1.30;80.30;;;;;;4858024;29;20056;-72
2021/01/23 07:51:36;;;;;;;13.60;9.25;;;1.40;80.40;;;;;;4858804;29;20057;-72
2021/01/23 07:54:08;;;;;;;16.73;8.90;;;1.40;80.20;;;;;;4859267;29;20057;-71
2021/01/23 07:56:34;;;;;;;20.25;11.30;;;1.50;80.70;;;;;;4866048;29;20094;-72
2021/01/23 07:59:02;;;;;;;18.58;11.80;;;1.50;80.20;;;;;;4861917;29;20053;-73
2021/01/23 08:01:29;;;;;;;22.10;12.90;;;1.50;80.00;;;;;;4858161;29;20057;-73
2021/01/23 08:03:56;;;;;;;23.70;13.50;;;1.50;80.00;;;;;;4863982;29;20064;-73
2021/01/23 08:06:24;;;;;;;25.02;13.15;;;1.60;80.20;;;;;;4861076;29;20049;-72
2021/01/23 08:08:52;;;;;;;22.90;13.13;;;1.60;80.30;;;;;;4860642;29;20049;-72
2021/01/23 08:11:36;;;;;;;18.63;11.65;;;1.60;80.10;;;;;;4860519;29;20048;-73
2021/01/23 08:14:07;;;;;;;19.75;12.27;;;1.70;80.20;;;;;;4860091;29;20049;-72
2021/01/23 08:16:35;;;;;;;13.48;9.63;;;1.80;80.10;;;;;;4861733;29;20056;-72
2021/01/23 08:19:06;;;;;;;15.15;9.57;;;1.80;79.80;;;;;;4863313;29;20140;-72
2021/01/23 08:21:33;;;;;;;10.63;7.05;;;2.00;79.50;;;;;;4859622;29;20049;-73
2021/01/23 08:23:59;;;;;;;12.02;7.07;;;2.00;78.40;;;;;;4862310;29;20088;-73
2021/01/23 08:26:37;;;;;;;10.77;6.75;;;2.20;74.70;;;;;;4861064;29;20053;-72
2021/01/23 08:29:04;;;;;;;10.35;6.82;;;2.30;71.30;;;;;;4864456;29;20053;-72
2021/01/23 08:31:31;;;;;;;13.32;6.80;;;2.40;68.50;;;;;;4856025;29;20068;-73
2021/01/23 08:33:59;;;;;;;14.15;6.63;;;2.50;65.70;;;;;;4861813;29;20077;-73
2021/01/23 08:36:27;;;;;;;9.23;6.07;;;2.50;64.10;;;;;;4860699;29;20072;-73
2021/01/23 08:38:55;;;;;;;12.40;6.80;;;2.60;63.60;;;;;;4863716;29;20049;-73
2021/01/23 08:41:23;;;;;;;10.95;6.03;;;2.60;61.80;;;;;;4853244;29;20053;-72
2021/01/23 08:43:50;;;;;;;15.98;6.60;;;2.60;62.40;;;;;;4862002;29;20064;-73
2021/01/23 08:46:17;;;;;;;8.90;5.72;;;2.70;61.20;;;;;;4857949;29;20554;-74
2021/01/23 08:48:44;;;;;;;10.45;5.93;;;2.60;62.80;;;;;;4864795;29;20113;-75
2021/01/23 08:51:11;;;;;;;9.55;5.85;;;2.70;60.80;;;;;;4856128;29;20127;-74
2021/01/23 08:53:38;;;;;;;10.00;5.80;;;2.80;60.30;;;;;;4857965;29;20053;-75
2021/01/23 08:56:05;;;;;;;9.18;6.00;;;2.90;60.30;;;;;;4857925;29;20057;-74
2021/01/23 08:58:32;;;;;;;7.53;5.72;;;3.00;60.40;;;;;;4861671;29;20656;-74
2021/01/23 09:00:59;;;;;;;8.43;5.35;;;3.10;59.90;;;;;;4855896;29;20132;-76
2021/01/23 09:03:26;;;;;;;7.82;5.18;;;3.20;59.10;;;;;;4863393;29;20559;-75
2021/01/23 09:05:53;;;;;;;9.90;5.25;;;3.30;56.80;;;;;;4863740;29;20061;-75
2021/01/23 09:08:20;;;;;;;11.43;7.00;;;3.40;53.40;;;;;;4859927;29;20042;-75
2021/01/23 09:10:47;;;;;;;15.20;7.80;;;3.40;51.60;;;;;;4856862;29;20414;-74
2021/01/23 09:13:14;;;;;;;15.38;6.90;;;3.50;50.90;;;;;;4861607;29;20057;-74
2021/01/23 09:15:41;;;;;;;12.30;6.93;;;3.50;51.20;;;;;;4856183;29;20452;-75
2021/01/23 09:18:08;;;;;;;9.88;5.60;;;3.70;51.90;;;;;;4863369;29;20056;-76
2021/01/23 09:20:35;;;;;;;10.27;4.90;;;3.80;49.30;;;;;;4861834;29;20563;-75
2021/01/23 09:23:03;;;;;;;5.88;4.43;;;3.70;49.00;;;;;;4860033;29;20484;-76
2021/01/23 09:25:30;;;;;;;7.50;4.93;;;3.80;48.00;;;;;;4858622;29;20049;-75
2021/01/23 09:27:57;;;;;;;7.72;4.80;;;3.80;45.30;;;;;;4867499;29;20049;-74
2021/01/23 09:30:25;;;;;;;7.95;4.80;;;3.80;46.10;;;;;;4859783;29;20609;-75
2021/01/23 09:32:51;;;;;;;6.63;4.80;;;3.80;46.80;;;;;;4862419;29;20072;-75
2021/01/23 09:35:18;;;;;;;9.80;5.10;;;3.80;46.30;;;;;;4864125;29;20076;-75
2021/01/23 09:37:45;;;;;;;6.03;4.25;;;4.00;49.10;;;;;;4869074;29;20076;-74
2021/01/23 09:40:13;;;;;;;8.35;4.95;;;3.90;44.50;;;;;;4861661;29;20797;-74
2021/01/23 09:42:41;;;;;;;6.35;4.65;;;3.90;46.70;;;;;;4859342;29;20419;-73
2021/01/23 09:45:09;;;;;;;8.68;4.65;;;4.00;47.50;;;;;;4858377;29;20085;-73
2021/01/23 09:47:36;;;;;;;10.43;6.10;;;4.00;47.80;;;;;;4860188;29;20501;-72
2021/01/23 09:50:05;;;;;;;7.85;5.45;;;4.10;47.50;;;;;;4857396;29;20081;-74
2021/01/23 09:52:33;;;;;;;9.02;5.22;;;4.20;47.00;;;;;;4859141;29;21315;-72
2021/01/23 09:55:00;;;;;;;9.05;5.22;;;4.20;48.00;;;;;;4865369;29;20420;-76
2021/01/23 09:57:27;;;;;;;8.00;5.32;;;4.40;47.50;;;;;;4865471;29;20144;-74
2021/01/23 09:59:54;;;;;;;9.82;4.88;;;4.30;42.40;;;;;;4863016;29;20053;-74
2021/01/23 10:02:21;;;;;;;9.77;5.45;;;4.40;45.80;;;;;;4867088;29;20068;-74
2021/01/23 10:04:48;;;;;;;8.65;4.82;;;4.40;42.00;;;;;;4866218;29;20065;-74
2021/01/23 10:07:15;;;;;;;11.65;5.40;;;4.60;41.80;;;;;;4863939;29;20061;-74
2021/01/23 10:09:42;;;;;;;8.88;4.68;;;4.70;42.30;;;;;;4874373;29;20393;-73
2021/01/23 10:12:09;;;;;;;7.50;4.03;;;4.60;37.70;;;;;;4865374;29;20241;-74
2021/01/23 10:14:36;;;;;;;6.45;4.00;;;4.80;38.70;;;;;;4872989;29;20637;-74
2021/01/23 10:17:05;;;;;;;5.32;4.03;;;4.80;37.90;;;;;;4874165;29;20064;-75
2021/01/23 10:19:32;;;;;;;9.02;3.92;;;4.80;38.50;;;;;;4866920;29;20153;-75
2021/01/23 10:22:00;;;;;;;5.57;3.90;;;5.10;38.10;;;;;;4873135;29;20068;-74
2021/01/23 10:24:27;;;;;;;6.60;4.00;;;5.20;37.30;;;;;;4877927;29;20056;-75
2021/01/23 10:26:54;;;;;;;4.40;3.22;;;5.10;37.00;;;;;;4856242;29;20382;-74
2021/01/23 10:29:21;;;;;;;5.78;3.35;;;5.00;35.00;;;;;;4875854;29;20481;-75
2021/01/23 10:31:48;;;;;;;7.05;3.72;;;5.10;31.90;;;;;;4862338;29;20112;-75
2021/01/23 10:34:16;;;;;;;8.45;3.20;;;4.80;31.80;;;;;;4874306;29;20052;-74
2021/01/23 10:36:43;;;;;;;5.93;3.42;;;4.90;36.40;;;;;;4859778;29;20048;-74
2021/01/23 10:39:10;;;;;;;6.40;3.63;;;4.80;32.50;;;;;;4866628;29;20050;-75
2021/01/23 10:41:37;;;;;;;4.78;3.38;;;5.00;33.10;;;;;;4863755;29;20049;-75
2021/01/23 10:44:04;;;;;;;5.70;3.60;;;4.80;31.50;;;;;;4869563;29;20053;-74
2021/01/23 10:46:32;;;;;;;4.25;3.08;;;5.00;38.00;;;;;;4873734;29;20049;-73
2021/01/23 10:48:58;;;;;;;5.53;3.10;;;5.10;33.80;;;;;;4864555;29;20153;-74
2021/01/23 10:51:26;;;;;;;4.85;2.80;;;5.10;35.90;;;;;;4866961;29;20061;-74
2021/01/23 10:53:53;;;;;;;4.75;2.75;;;5.00;31.80;;;;;;4871176;29;20542;-73
2021/01/23 10:56:20;;;;;;;6.57;3.50;;;4.80;30.60;;;;;;4865432;29;20053;-74
2021/01/23 10:58:47;;;;;;;3.78;2.65;;;5.00;33.90;;;;;;4863333;29;20057;-74
2021/01/23 11:01:14;;;;;;;4.35;2.90;;;5.20;35.50;;;;;;4864921;29;20088;-75
2021/01/23 11:03:41;;;;;;;5.90;3.33;;;5.00;33.80;;;;;;4871280;29;20071;-74
2021/01/23 11:06:08;;;;;;;4.28;2.90;;;5.10;29.80;;;;;;4861092;29;20061;-72
2021/01/23 11:08:36;;;;;;;7.53;4.57;;;5.10;30.50;;;;;;4865215;29;20064;-75
2021/01/23 11:11:03;;;;;;;10.68;4.50;;;5.10;31.20;;;;;;4855161;29;20045;-74
2021/01/23 11:13:30;;;;;;;5.65;3.75;;;5.10;31.00;;;;;;4863930;29;20053;-75
2021/01/23 11:15:56;;;;;;;4.25;2.97;;;4.90;29.00;;;;;;4860206;29;20583;-74
2021/01/23 11:18:23;;;;;;;4.25;2.45;;;5.00;30.90;;;;;;4872494;29;20360;-74
2021/01/23 11:20:51;;;;;;;5.13;2.90;;;5.10;29.80;;;;;;4871435;29;20057;-75
2021/01/23 11:23:18;;;;;;;3.35;2.40;;;5.20;30.10;;;;;;4862500;29;20068;-75
2021/01/23 11:25:46;;;;;;;4.82;2.75;;;5.30;29.40;;;;;;4868692;29;20406;-73
2021/01/23 11:28:13;;;;;;;4.50;2.97;;;5.30;29.90;;;;;;4865730;29;20053;-74
2021/01/23 11:30:39;;;;;;;4.82;2.80;;;5.30;28.60;;;;;;4858685;29;20057;-73
2021/01/23 11:33:06;;;;;;;4.55;2.88;;;5.20;29.90;;;;;;4860266;29;20420;-73
2021/01/23 11:35:33;;;;;;;4.80;2.72;;;5.30;27.40;;;;;;4866487;29;20045;-74
2021/01/23 11:38:02;;;;;;;3.20;2.40;;;5.20;27.90;;;;;;4868082;29;20591;-74
2021/01/23 11:40:29;;;;;;;4.05;2.50;;;5.20;27.70;;;;;;4860602;29;20408;-72
2021/01/23 11:42:57;;;;;;;3.30;2.53;;;5.20;27.60;;;;;;4858282;29;20061;-71
2021/01/23 11:45:24;;;;;;;4.28;2.60;;;5.40;27.60;;;;;;4859634;29;20057;-71
2021/01/23 11:47:50;;;;;;;4.78;2.65;;;5.50;27.30;;;;;;4863158;29;20061;-72
2021/01/23 11:50:17;;;;;;;2.55;1.95;;;5.40;26.00;;;;;;4867527;29;20294;-73
2021/01/23 11:52:44;;;;;;;4.00;2.38;;;5.40;26.70;;;;;;4866466;29;20057;-71
2021/01/23 11:55:11;;;;;;;3.25;2.28;;;5.30;27.90;;;;;;4856709;29;20046;-73
2021/01/23 11:57:38;;;;;;;4.32;2.88;;;5.40;28.10;;;;;;4863557;29;20052;-73
2021/01/23 12:00:07;;;;;;;5.35;3.10;;;5.30;26.80;;;;;;4861529;29;20051;-73
2021/01/23 12:02:35;;;;;;;4.97;3.13;;;5.40;28.10;;;;;;4860894;29;20053;-74
2021/01/23 12:05:02;;;;;;;4.90;3.05;;;5.40;26.30;;;;;;4860173;29;20057;-74
2021/01/23 12:07:29;;;;;;;5.07;2.97;;;5.40;27.00;;;;;;4866378;29;20053;-74
2021/01/23 12:09:56;;;;;;;4.70;2.55;;;5.30;26.00;;;;;;4862826;29;20049;-74
2021/01/23 12:12:24;;;;;;;4.55;2.92;;;5.30;24.70;;;;;;4862883;29;20056;-74
2021/01/23 12:14:50;;;;;;;4.43;2.65;;;5.40;26.70;;;;;;4862587;29;20064;-74
2021/01/23 12:17:18;;;;;;;4.20;2.30;;;5.20;25.60;;;;;;4858823;29;20061;-74
2021/01/23 12:19:45;;;;;;;3.30;2.20;;;5.30;25.90;;;;;;4862819;29;20417;-74
2021/01/23 12:22:13;;;;;;;5.30;2.33;;;5.30;24.60;;;;;;4860342;29;20057;-75
2021/01/23 12:24:39;;;;;;;4.32;1.90;;;5.30;26.50;;;;;;4864755;29;20424;-75
2021/01/23 12:27:07;;;;;;;6.93;2.67;;;5.40;23.70;;;;;;4869006;29;20067;-75
2021/01/23 12:29:34;;;;;;;3.92;2.40;;;5.30;23.20;;;;;;4861191;29;20053;-75
2021/01/23 12:35:49;;;;;;;3.67;2.10;;;5.30;22.60;;;;;;4860037;29;20076;-75
2021/01/23 12:38:16;;;;;;;3.55;2.15;;;5.40;22.10;;;;;;4864315;29;20065;-74
2021/01/23 12:40:43;;;;;;;2.88;1.80;;;5.40;23.30;;;;;;4857681;29;20050;-74
2021/01/23 12:43:09;;;;;;;5.45;2.25;;;5.60;22.10;;;;;;4861309;29;20054;-73
2021/01/23 12:45:36;;;;;;;4.75;2.25;;;5.50;20.90;;;;;;4860091;29;20493;-73
2021/01/23 12:48:04;;;;;;;4.15;2.00;;;5.60;23.40;;;;;;4860814;29;20056;-73
2021/01/23 12:50:31;;;;;;;3.90;2.35;;;5.60;21.90;;;;;;4856248;29;20057;-73
2021/01/23 12:52:58;;;;;;;4.93;2.20;;;5.70;23.00;;;;;;4863500;29;20053;-74
2021/01/23 12:55:25;;;;;;;8.02;2.20;;;5.70;22.10;;;;;;4857285;29;20057;-73
2021/01/23 12:57:52;;;;;;;3.83;2.17;;;5.70;22.50;;;;;;4860013;29;20073;-72